Search for airport 
image banner adimage banner adimage banner ad
image banner ad

PN52 - Mike's

Located in Cochranville, United States

ICAO - PN52, IATA -

Data provided by Airmate  

General information

Coordinates: N39°52'2" W75°56'1"
Elevation is 550 feet MSL.
Magnetic variation is -12° East
View others Airports in Pennsylvania

Operational data

Special qualification required
Current time UTC:
Current local time:
Weather at : KMQS - Chester County G O Carlson ( 14 km )
METAR: KMQS 150655Z AUTO 00000KT 8SM FEW050 FEW055 SCT075 17/17 A2980 RMK AO2
View NOTAMs / SUP AIP / TFR affecting this airport [VIEW]
Communications frequencies: [VIEW]

Runways:

Airport contact information

Address: Cochranville United States

Satellite view of PN52